createdAt,value
2023-03-27T00:00:02.610Z,78.5
2023-03-27T00:15:03.081Z,79.9
2023-03-27T00:30:02.518Z,80.9
2023-03-27T00:45:02.964Z,82.3
2023-03-27T01:00:02.481Z,83.7
2023-03-27T01:15:02.877Z,84.9
2023-03-27T01:30:02.476Z,85.6
2023-03-27T01:45:02.745Z,86.4
2023-03-27T02:00:18.144Z,87.1
2023-03-27T02:15:24.448Z,88.1
2023-03-27T02:30:03.048Z,88.7
2023-03-27T02:45:02.487Z,89.9
2023-03-27T03:00:02.945Z,91.1
2023-03-27T03:15:02.511Z,91.8
2023-03-27T03:30:02.830Z,92.2
2023-03-27T03:45:02.250Z,92.3
2023-03-27T04:00:02.683Z,92.4
2023-03-27T04:15:03.109Z,93.0
2023-03-27T04:30:02.560Z,93.3
2023-03-27T04:45:02.969Z,93.6
2023-03-27T05:00:02.524Z,94.1
2023-03-27T05:15:02.887Z,94.0
2023-03-27T05:30:02.564Z,93.4
2023-03-27T05:45:02.755Z,93.5
2023-03-27T06:00:03.196Z,93.5
2023-03-27T06:15:02.645Z,93.5
2023-03-27T06:30:03.083Z,93.5
2023-03-27T06:45:02.543Z,92.3
2023-03-27T07:00:02.990Z,89.5
2023-03-27T07:15:02.552Z,85.2
2023-03-27T07:30:02.810Z,79.7
2023-03-27T07:45:04.445Z,78.0
2023-03-27T08:00:02.714Z,76.0
2023-03-27T08:15:03.128Z,75.9
2023-03-27T08:30:02.553Z,70.8
2023-03-27T08:45:03.038Z,69.4
2023-03-27T09:00:02.566Z,62.9
2023-03-27T09:15:02.919Z,59.6
2023-03-27T09:30:05.880Z,58.4
2023-03-27T09:45:02.789Z,56.1
2023-03-27T10:00:03.223Z,54.5
2023-03-27T10:15:02.672Z,56.1
2023-03-27T10:30:03.135Z,67.2
2023-03-27T10:45:02.573Z,64.3
2023-03-27T11:00:03.001Z,67.4
2023-03-27T11:15:02.569Z,73.8
2023-03-27T11:30:02.871Z,64.2
2023-03-27T11:45:02.299Z,51.3
2023-03-27T12:00:02.748Z,72.2
2023-03-27T12:15:03.203Z,65.3
2023-03-27T12:30:02.621Z,69.2
2023-03-27T12:45:03.037Z,67.2
2023-03-27T13:00:02.603Z,65.3
2023-03-27T13:15:02.909Z,58.2
2023-03-27T13:30:02.660Z,60.3
2023-03-27T13:45:02.816Z,55.8
2023-03-27T14:00:02.253Z,56.1
2023-03-27T14:15:02.684Z,51.3
2023-03-27T14:30:03.160Z,53.6
2023-03-27T14:45:02.620Z,49.0
2023-03-27T15:00:03.017Z,50.7
2023-03-27T15:15:02.629Z,51.3
2023-03-27T15:30:02.903Z,49.0
2023-03-27T15:45:02.330Z,48.1
2023-03-27T16:00:02.771Z,48.0
2023-03-27T16:15:05.943Z,55.4
2023-03-27T16:30:02.655Z,59.0
2023-03-27T16:45:03.060Z,60.9
2023-03-27T17:00:02.658Z,62.4
2023-03-27T17:15:02.976Z,64.9
2023-03-27T17:30:02.404Z,69.8
2023-03-27T17:45:02.836Z,71.3
2023-03-27T18:00:03.142Z,71.9
2023-03-27T18:15:02.754Z,72.1
2023-03-27T18:30:02.163Z,67.6
2023-03-27T18:45:02.667Z,67.8
2023-03-27T19:00:03.019Z,68.2
2023-03-27T19:15:13.305Z,68.8
2023-03-27T19:30:02.913Z,70.1
2023-03-27T19:45:02.347Z,71.6
2023-03-27T20:00:02.800Z,72.9
2023-03-27T20:15:11.826Z,74.2
2023-03-27T20:30:02.680Z,75.3
2023-03-27T20:45:03.104Z,76.0
2023-03-27T21:00:02.701Z,76.4
2023-03-27T21:15:02.963Z,77.2
2023-03-27T21:30:02.453Z,77.8
2023-03-27T21:45:02.871Z,78.0
2023-03-27T22:00:02.333Z,78.3
2023-03-27T22:15:02.755Z,78.8
2023-03-27T22:30:02.165Z,79.1
2023-03-27T22:45:02.712Z,79.3
2023-03-27T23:00:03.035Z,79.3
2023-03-27T23:15:02.692Z,80.0
2023-03-27T23:30:02.934Z,81.0
2023-03-27T23:45:02.344Z,81.8
